Time;durP1;ratioP1;P1;durP2;ratioP2;P2;SDS_P1;SDS_P2;PMS_P1;PMS_P2;Temp;Humidity;BMP_temperature;BMP_pressure;BME280_temperature;BME280_humidity;BME280_pressure;Samples;Min_cycle;Max_cycle;Signal;HPM_P1;HPM_P2
2023/02/22 00:01:07;;;;;;;5.30;2.00;;;;;;;2.72;65.44;99591.73;105168;1263;62392;-54
2023/02/22 00:03:37;;;;;;;6.90;3.00;;;;;;;2.69;65.09;99599.17;104831;1265;64999;-55
2023/02/22 00:06:06;;;;;;;6.40;3.00;;;;;;;2.64;65.03;99600.88;105398;1267;59739;-54
2023/02/22 00:08:35;;;;;;;7.60;3.20;;;;;;;2.56;64.80;99603.06;104738;1261;59670;-55
2023/02/22 00:11:08;;;;;;;5.50;2.40;;;;;;;2.54;64.52;99603.50;104816;1262;73931;-55
2023/02/22 00:13:37;;;;;;;6.00;2.10;;;;;;;2.52;64.26;99607.45;104773;1263;62523;-56
2023/02/22 00:16:05;;;;;;;5.00;2.00;;;;;;;2.51;64.45;99610.29;104978;1266;73975;-55
2023/02/22 00:18:34;;;;;;;4.60;1.80;;;;;;;2.43;64.24;99608.83;104980;1263;60374;-55
2023/02/22 00:21:09;;;;;;;5.90;2.00;;;;;;;2.36;63.95;99618.40;104771;1263;59680;-55
2023/02/22 00:23:45;;;;;;;5.40;1.90;;;;;;;2.34;63.49;99624.26;104914;1263;65385;-55
2023/02/22 00:26:17;;;;;;;4.40;1.30;;;;;;;2.34;62.77;99625.77;105013;1263;62440;-53
2023/02/22 00:28:51;;;;;;;2.80;1.10;;;;;;;2.29;61.90;99631.77;104778;1263;65171;-56
2023/02/22 00:31:19;;;;;;;4.70;1.50;;;;;;;2.24;62.04;99641.41;105280;1265;59592;-57
2023/02/22 00:33:50;;;;;;;6.50;1.80;;;;;;;2.21;62.28;99646.98;105419;1263;59769;-56
2023/02/22 00:36:18;;;;;;;5.40;2.00;;;;;;;2.18;62.28;99650.25;104828;1263;67214;-56
2023/02/22 00:38:46;;;;;;;6.80;2.20;;;;;;;2.19;62.34;99654.16;105054;1264;70090;-54
2023/02/22 00:41:15;;;;;;;5.30;1.60;;;;;;;2.21;61.54;99656.14;105139;1267;73677;-55
2023/02/22 00:43:44;;;;;;;6.10;1.80;;;;;;;2.19;61.40;99662.13;105005;1263;59646;-55
2023/02/22 00:46:13;;;;;;;7.50;1.90;;;;;;;2.15;61.04;99667.59;104831;1263;61109;-55
2023/02/22 00:48:43;;;;;;;5.20;1.80;;;;;;;2.11;61.08;99675.38;104748;1269;73989;-53
2023/02/22 00:51:12;;;;;;;6.20;2.30;;;;;;;2.04;60.97;99676.14;104852;1263;71332;-54
2023/02/22 00:53:40;;;;;;;3.10;1.20;;;;;;;1.98;60.95;99680.95;104853;1268;73700;-55
2023/02/22 00:56:08;;;;;;;5.80;1.40;;;;;;;1.99;60.77;99683.48;104835;1263;60611;-55
2023/02/22 00:58:37;;;;;;;5.50;1.80;;;;;;;2.00;60.65;99692.77;104753;1265;61442;-56
2023/02/22 01:01:05;;;;;;;4.20;1.30;;;;;;;2.00;60.70;99698.66;106779;1262;65497;-56
2023/02/22 01:03:34;;;;;;;4.50;1.30;;;;;;;1.99;60.43;99700.28;104874;1264;70971;-55
2023/02/22 01:06:08;;;;;;;5.50;1.80;;;;;;;1.93;59.95;99701.63;104747;1266;65030;-54
2023/02/22 01:08:36;;;;;;;4.90;1.40;;;;;;;1.89;59.59;99704.27;104677;1264;60536;-55
2023/02/22 01:11:05;;;;;;;6.30;2.00;;;;;;;1.86;59.92;99711.35;104728;1263;61010;-54
2023/02/22 01:13:34;;;;;;;4.10;1.30;;;;;;;1.89;59.72;99714.67;104954;1266;73980;-56
2023/02/22 01:16:06;;;;;;;5.00;1.40;;;;;;;1.89;59.44;99718.80;104787;1267;70986;-55
2023/02/22 01:18:36;;;;;;;6.90;1.80;;;;;;;1.89;59.58;99720.56;104632;1268;65242;-55
2023/02/22 01:21:05;;;;;;;4.50;1.20;;;;;;;1.87;60.04;99724.11;104975;1267;59529;-55
2023/02/22 01:23:33;;;;;;;4.70;1.50;;;;;;;1.84;60.21;99732.94;105004;1263;61322;-55
2023/02/22 01:26:03;;;;;;;5.00;1.90;;;;;;;1.82;60.40;99735.31;104990;1268;74031;-56
2023/02/22 01:28:32;;;;;;;6.20;2.10;;;;;;;1.82;60.37;99740.96;104896;1263;71217;-56
2023/02/22 01:31:02;;;;;;;4.80;1.60;;;;;;;1.84;60.11;99747.08;105575;1267;63612;-56
2023/02/22 01:33:30;;;;;;;6.40;2.50;;;;;;;1.82;59.65;99746.17;104767;1266;60710;-55
2023/02/22 01:36:00;;;;;;;4.50;1.70;;;;;;;1.77;59.38;99753.91;104813;1264;59736;-55
2023/02/22 01:38:28;;;;;;;4.70;1.60;;;;;;;1.74;59.58;99756.84;105012;1268;73749;-55
2023/02/22 01:40:56;;;;;;;5.80;1.50;;;;;;;1.63;59.48;99763.45;104935;1264;70980;-55
2023/02/22 01:43:30;;;;;;;6.10;2.20;;;;;;;1.48;59.78;99764.77;104952;1263;73661;-56
2023/02/22 01:45:58;;;;;;;5.20;2.50;;;;;;;1.54;59.37;99769.45;104860;1263;59770;-55
2023/02/22 01:48:43;;;;;;;5.90;2.40;;;;;;;1.57;58.30;99769.84;104743;1263;60593;-55
2023/02/22 01:51:17;;;;;;;5.60;2.00;;;;;;;1.57;58.45;99775.67;104832;1266;64376;-55
2023/02/22 01:53:54;;;;;;;6.20;2.00;;;;;;;1.58;58.52;99784.09;105611;1263;62397;-55
2023/02/22 01:56:23;;;;;;;7.40;2.90;;;;;;;1.55;58.17;99785.30;104628;1266;64760;-57
2023/02/22 01:58:54;;;;;;;5.50;2.00;;;;;;;1.49;57.96;99791.30;104710;1268;59969;-56
2023/02/22 02:01:23;;;;;;;5.40;1.70;;;;;;;1.41;57.73;99796.39;104694;1267;60216;-55
2023/02/22 02:03:53;;;;;;;7.40;2.30;;;;;;;1.38;57.80;99802.44;104408;1266;72961;-55
2023/02/22 02:06:26;;;;;;;7.00;2.40;;;;;;;1.28;57.31;99806.19;104968;1263;62654;-54
2023/02/22 02:08:58;;;;;;;6.30;2.40;;;;;;;1.21;56.94;99813.13;104884;1263;72642;-55
2023/02/22 02:11:27;;;;;;;6.90;2.30;;;;;;;1.12;56.82;99815.51;104730;1263;61951;-56
2023/02/22 02:14:01;;;;;;;9.00;3.70;;;;;;;1.18;57.31;99823.98;104754;1264;59704;-55
2023/02/22 02:16:40;;;;;;;5.70;2.20;;;;;;;1.18;57.60;99826.62;104702;1263;74004;-53
2023/02/22 02:19:14;;;;;;;4.60;1.80;;;;;;;1.13;57.33;99832.19;104846;1267;62430;-55
2023/02/22 02:22:24;;;;;;;5.60;2.10;;;;;;;1.11;56.73;99834.55;104784;1263;64948;-56
2023/02/22 02:25:27;;;;;;;5.50;1.80;;;;;;;1.06;56.77;99846.50;104781;1265;60939;-54
2023/02/22 02:28:18;;;;;;;4.40;1.30;;;;;;;1.04;57.15;99855.29;104859;1263;59733;-56
2023/02/22 02:31:04;;;;;;;5.90;2.30;;;;;;;1.02;56.96;99859.18;104750;1266;65420;-54
2023/02/22 02:33:33;;;;;;;5.40;1.50;;;;;;;0.97;56.91;99861.29;104591;1266;62742;-53
2023/02/22 02:36:17;;;;;;;5.80;1.80;;;;;;;0.96;57.09;99868.96;104620;1264;73434;-55
2023/02/22 02:38:49;;;;;;;6.10;2.10;;;;;;;1.03;56.59;99869.15;104831;1264;59807;-54
2023/02/22 02:41:23;;;;;;;4.60;2.00;;;;;;;0.97;55.86;99870.96;106341;1266;60357;-54
2023/02/22 02:44:10;;;;;;;6.10;1.60;;;;;;;0.97;56.09;99876.52;105118;1265;72974;-55
2023/02/22 02:47:03;;;;;;;7.00;2.00;;;;;;;1.05;55.90;99880.23;104731;1268;61682;-54
2023/02/22 02:49:45;;;;;;;5.20;1.60;;;;;;;1.05;54.58;99881.96;104615;1266;63763;-53
2023/02/22 02:52:14;;;;;;;5.80;1.60;;;;;;;0.98;53.52;99882.84;108607;1263;57431;-53
2023/02/22 02:54:46;;;;;;;4.90;1.50;;;;;;;1.01;53.73;99896.85;108707;1260;60002;-53
2023/02/22 02:57:15;;;;;;;4.90;1.70;;;;;;;1.00;53.14;99903.31;108794;1260;74102;-52
2023/02/22 02:59:43;;;;;;;5.50;1.70;;;;;;;0.96;52.58;99908.70;108758;1260;70033;-53
2023/02/22 03:02:51;;;;;;;4.20;1.70;;;;;;;0.96;51.94;99914.70;108075;1260;72634;-55
2023/02/22 03:05:58;;;;;;;5.90;1.80;;;;;;;0.97;52.55;99919.85;105172;1260;59881;-55
2023/02/22 03:08:51;;;;;;;3.70;1.00;;;;;;;0.95;51.85;99923.57;105025;1265;59660;-54
2023/02/22 03:11:30;;;;;;;4.80;1.40;;;;;;;0.92;51.16;99930.27;104994;1263;65161;-55
2023/02/22 03:14:28;;;;;;;4.30;1.10;;;;;;;0.89;51.05;99937.48;104896;1262;62804;-55
2023/02/22 03:17:01;;;;;;;4.40;1.30;;;;;;;0.78;51.99;99944.39;105040;1261;65215;-56
2023/02/22 03:19:31;;;;;;;4.70;1.50;;;;;;;0.73;52.33;99950.30;107480;1262;60598;-51
2023/02/22 03:22:12;;;;;;;4.00;1.90;;;;;;;0.70;51.08;99953.21;104962;1265;61147;-53
2023/02/22 03:24:51;;;;;;;4.30;2.00;;;;;;;0.69;50.79;99953.44;105099;1265;64947;-54
2023/02/22 03:27:32;;;;;;;5.40;2.00;;;;;;;0.66;50.95;99957.88;105207;1260;62513;-52
2023/02/22 03:30:04;;;;;;;4.30;1.50;;;;;;;0.63;51.26;99962.02;105020;1266;73450;-52
2023/02/22 03:32:36;;;;;;;5.50;1.60;;;;;;;0.66;51.58;99963.09;105048;1260;60792;-53
2023/02/22 03:35:11;;;;;;;4.00;1.50;;;;;;;0.73;51.79;99975.36;105078;1260;60418;-53
2023/02/22 03:37:43;;;;;;;5.60;1.50;;;;;;;0.73;52.25;99973.79;104938;1260;74618;-53
2023/02/22 03:40:15;;;;;;;4.90;1.70;;;;;;;0.71;52.40;99974.40;104595;1263;70016;-53
2023/02/22 03:42:48;;;;;;;4.70;1.50;;;;;;;0.67;51.98;99968.05;105018;1263;73614;-53
2023/02/22 03:45:16;;;;;;;4.00;1.20;;;;;;;0.69;52.49;99978.64;105025;1260;60642;-54
2023/02/22 03:47:49;;;;;;;6.20;2.00;;;;;;;0.69;52.46;99981.09;105060;1260;60466;-54
2023/02/22 03:50:25;;;;;;;5.00;1.70;;;;;;;0.68;51.95;99984.89;104960;1264;74415;-53
2023/02/22 03:52:53;;;;;;;;;;;;;;;0.68;51.18;99986.98;104908;1260;71338;-53
2023/02/22 03:55:27;;;;;;;4.50;1.70;;;;;;;0.68;51.11;99993.89;107380;1263;73380;-53
2023/02/22 03:57:57;;;;;;;6.20;1.80;;;;;;;0.68;51.59;99999.08;104874;1260;61680;-54
2023/02/22 04:00:29;;;;;;;5.90;1.40;;;;;;;0.69;52.03;100001.28;105045;1260;61142;-55
2023/02/22 04:02:57;;;;;;;6.00;1.90;;;;;;;0.69;52.50;100006.58;105105;1261;73797;-55
2023/02/22 04:05:26;;;;;;;6.40;2.80;;;;;;;0.70;52.87;100006.08;104953;1264;71070;-54
2023/02/22 04:07:56;;;;;;;4.50;1.40;;;;;;;0.69;52.34;100010.96;104888;1263;74235;-54
2023/02/22 04:10:26;;;;;;;5.90;2.40;;;;;;;0.68;52.87;100013.20;104956;1263;60467;-54
2023/02/22 04:12:54;;;;;;;3.60;1.30;;;;;;;0.69;53.28;100016.64;105737;1263;60335;-56
2023/02/22 04:15:27;;;;;;;4.60;1.70;;;;;;;0.68;53.71;100023.78;104876;1265;74712;-52
2023/02/22 04:18:04;;;;;;;6.40;2.20;;;;;;;0.66;53.89;100031.80;105249;1261;71235;-55
2023/02/22 04:20:33;;;;;;;7.00;2.30;;;;;;;0.65;54.09;100035.98;104868;1265;73475;-55
2023/02/22 04:23:10;;;;;;;6.70;2.00;;;;;;;0.61;54.51;100037.20;105562;1260;60382;-55
2023/02/22 04:25:40;;;;;;;6.00;1.90;;;;;;;0.61;54.91;100042.54;105102;1260;61027;-55
2023/02/22 04:28:13;;;;;;;8.40;3.50;;;;;;;0.57;54.86;100042.19;105231;1260;74969;-56
2023/02/22 04:30:55;;;;;;;6.30;2.00;;;;;;;0.55;55.33;100046.27;105059;1260;62348;-55
2023/02/22 04:33:24;;;;;;;6.60;2.00;;;;;;;0.60;55.67;100061.92;105034;1265;72506;-55
2023/02/22 04:35:53;;;;;;;6.70;2.70;;;;;;;0.69;55.92;100068.27;104974;1260;60551;-55
2023/02/22 04:38:21;;;;;;;6.40;1.90;;;;;;;0.72;56.25;100074.17;104960;1262;61317;-53
2023/02/22 04:40:49;;;;;;;7.10;2.80;;;;;;;0.71;56.73;100079.20;105353;1263;73587;-55
2023/02/22 04:43:20;;;;;;;7.70;2.80;;;;;;;0.73;56.46;100083.62;105020;1265;71439;-54
2023/02/22 04:45:52;;;;;;;6.60;2.80;;;;;;;0.70;56.30;100088.40;104995;1263;73259;-56
2023/02/22 04:48:20;;;;;;;6.10;2.20;;;;;;;0.67;56.38;100091.46;105062;1260;60454;-55
2023/02/22 04:50:50;;;;;;;5.50;1.80;;;;;;;0.65;56.48;100091.73;105715;1253;61026;-55
2023/02/22 04:53:19;;;;;;;5.80;2.80;;;;;;;0.62;56.81;100095.48;105622;1254;73891;-56
2023/02/22 04:55:47;;;;;;;5.10;2.00;;;;;;;0.62;56.84;100103.64;105519;1256;69944;-55
2023/02/22 04:58:17;;;;;;;9.60;3.50;;;;;;;0.59;56.91;100105.96;105650;1256;73767;-54
2023/02/22 05:00:46;;;;;;;10.50;3.20;;;;;;;0.58;56.67;100110.50;105475;1253;60712;-55
2023/02/22 05:03:14;;;;;;;8.20;2.60;;;;;;;0.58;56.66;100112.25;105592;1256;60438;-55
2023/02/22 05:05:42;;;;;;;5.50;1.80;;;;;;;0.58;56.44;100110.16;105493;1256;74487;-55
2023/02/22 05:08:10;;;;;;;5.80;1.90;;;;;;;0.60;56.26;100114.08;105648;1254;70989;-56
2023/02/22 05:10:39;;;;;;;6.10;2.10;;;;;;;0.59;55.76;100121.55;105655;1253;74021;-55
2023/02/22 05:13:08;;;;;;;5.70;2.20;;;;;;;0.56;55.81;100128.04;105748;1253;60566;-54
2023/02/22 05:15:36;;;;;;;6.40;1.90;;;;;;;0.55;56.25;100135.84;105650;1252;61335;-55
2023/02/22 05:18:05;;;;;;;9.10;3.60;;;;;;;0.56;56.13;100144.44;105817;1257;74733;-55
2023/02/22 05:20:33;;;;;;;8.40;2.30;;;;;;;0.53;55.40;100151.77;105660;1255;71169;-56
2023/02/22 05:23:02;;;;;;;6.00;1.40;;;;;;;0.51;55.25;100159.83;105483;1259;72623;-55
2023/02/22 05:25:33;;;;;;;6.30;2.10;;;;;;;0.49;55.01;100162.99;105348;1256;60470;-55
2023/02/22 05:28:09;;;;;;;5.60;2.00;;;;;;;0.48;54.31;100165.82;105459;1257;61158;-54
2023/02/22 05:30:38;;;;;;;6.50;2.50;;;;;;;0.47;54.43;100164.64;105213;1259;73841;-53
2023/02/22 05:33:07;;;;;;;6.70;2.10;;;;;;;0.45;54.18;100171.95;105418;1255;71056;-54
2023/02/22 05:35:37;;;;;;;5.90;2.10;;;;;;;0.44;53.83;100179.62;105229;1256;73672;-55
2023/02/22 05:38:05;;;;;;;5.40;1.80;;;;;;;0.42;53.72;100184.20;105505;1253;60423;-54
2023/02/22 05:40:34;;;;;;;6.20;2.10;;;;;;;0.38;53.31;100186.59;105420;1253;61029;-54
2023/02/22 05:43:02;;;;;;;7.40;2.20;;;;;;;0.34;53.47;100194.70;105564;1254;74777;-54
2023/02/22 05:45:32;;;;;;;8.10;1.80;;;;;;;0.32;53.76;100196.65;105643;1256;71111;-54
2023/02/22 05:48:00;;;;;;;6.60;1.80;;;;;;;0.32;53.48;100197.88;105599;1256;74242;-54
2023/02/22 05:50:36;;;;;;;6.10;2.40;;;;;;;0.29;53.06;100205.77;105623;1253;61334;-54
2023/02/22 05:53:05;;;;;;;7.10;1.70;;;;;;;0.26;53.47;100215.36;105596;1253;60607;-54
2023/02/22 05:55:33;;;;;;;6.80;3.00;;;;;;;0.25;53.87;100223.00;105668;1256;74633;-54
2023/02/22 05:58:04;;;;;;;7.60;2.20;;;;;;;0.26;54.02;100226.05;105617;1257;71296;-54
2023/02/22 06:00:33;;;;;;;7.40;2.70;;;;;;;0.26;53.98;100234.52;105625;1256;73625;-53
2023/02/22 06:03:03;;;;;;;5.90;1.50;;;;;;;0.24;53.64;100237.54;105742;1255;60582;-52
2023/02/22 06:05:32;;;;;;;5.10;1.50;;;;;;;0.22;54.04;100240.20;105631;1251;61407;-52
2023/02/22 06:08:01;;;;;;;6.20;2.70;;;;;;;0.19;54.12;100242.37;105543;1254;73035;-54
2023/02/22 06:10:30;;;;;;;6.00;2.10;;;;;;;0.15;54.07;100243.55;105705;1257;71155;-54
2023/02/22 06:13:00;;;;;;;7.20;2.20;;;;;;;0.14;54.18;100248.96;105643;1255;73636;-54
2023/02/22 06:15:29;;;;;;;6.70;3.20;;;;;;;0.14;54.33;100250.52;105709;1256;60383;-54
2023/02/22 06:17:57;;;;;;;8.30;3.50;;;;;;;0.13;54.21;100252.78;105576;1256;61154;-54
2023/02/22 06:20:27;;;;;;;6.30;2.30;;;;;;;0.14;54.54;100261.17;105696;1253;74424;-55
2023/02/22 06:22:57;;;;;;;8.30;2.40;;;;;;;0.16;54.77;100261.98;105755;1256;71311;-54
2023/02/22 06:25:29;;;;;;;6.40;2.20;;;;;;;0.18;54.70;100265.02;105744;1255;73723;-54
2023/02/22 06:27:58;;;;;;;7.70;2.20;;;;;;;0.19;54.90;100276.38;105542;1257;62754;-53
2023/02/22 06:30:27;;;;;;;6.10;2.10;;;;;;;0.21;55.01;100280.98;105789;1258;61269;-52
2023/02/22 06:32:55;;;;;;;8.40;3.30;;;;;;;0.23;55.13;100285.90;105815;1256;73814;-54
2023/02/22 06:35:23;;;;;;;6.40;2.30;;;;;;;0.25;54.70;100286.98;105524;1261;71346;-54
2023/02/22 06:37:53;;;;;;;8.70;2.40;;;;;;;0.24;54.94;100285.52;105556;1256;73745;-54
2023/02/22 06:40:21;;;;;;;6.50;2.70;;;;;;;0.22;55.31;100286.10;105720;1252;60815;-55
2023/02/22 06:42:49;;;;;;;6.40;2.40;;;;;;;0.21;55.12;100286.66;105553;1253;61162;-55
2023/02/22 06:45:18;;;;;;;7.60;2.30;;;;;;;0.19;55.14;100298.98;105670;1256;74820;-54
2023/02/22 06:47:46;;;;;;;6.90;2.20;;;;;;;0.18;55.27;100295.91;105507;1264;71096;-55
2023/02/22 06:50:27;;;;;;;7.50;3.10;;;;;;;0.18;55.35;100297.63;105457;1256;72402;-55
2023/02/22 06:52:56;;;;;;;7.40;2.40;;;;;;;0.20;55.56;100305.33;105522;1254;60513;-55
2023/02/22 06:55:28;;;;;;;7.70;2.10;;;;;;;0.20;54.98;100309.29;105582;1254;61079;-55
2023/02/22 06:57:57;;;;;;;8.00;1.80;;;;;;;0.17;55.09;100315.95;105656;1257;74646;-55
2023/02/22 07:00:27;;;;;;;8.50;2.60;;;;;;;0.16;55.55;100322.02;105635;1260;71117;-53
2023/02/22 07:02:56;;;;;;;4.70;2.20;;;;;;;0.18;55.57;100324.20;105641;1259;72415;-54
2023/02/22 07:05:25;;;;;;;6.70;3.00;;;;;;;0.18;55.40;100329.54;105623;1257;61027;-54
2023/02/22 07:08:02;;;;;;;5.80;2.00;;;;;;;0.20;55.36;100333.77;105373;1251;61475;-55
2023/02/22 07:10:32;;;;;;;8.10;2.60;;;;;;;0.24;54.82;100339.69;105815;1254;73835;-53
2023/02/22 07:13:08;;;;;;;8.40;2.40;;;;;;;0.24;54.50;100343.47;105452;1258;70513;-55
2023/02/22 07:15:37;;;;;;;7.10;2.70;;;;;;;0.25;54.52;100344.32;105722;1256;73290;-55
2023/02/22 07:18:06;;;;;;;9.20;3.00;;;;;;;0.26;54.51;100351.15;105490;1251;60803;-54
2023/02/22 07:20:37;;;;;;;9.40;3.70;;;;;;;0.31;55.07;100358.05;105342;1256;61404;-54
2023/02/22 07:23:06;;;;;;;9.30;3.10;;;;;;;0.35;54.59;100358.59;105403;1257;74800;-56
2023/02/22 07:25:34;;;;;;;8.90;2.70;;;;;;;0.26;54.26;100360.30;105510;1256;71160;-53
2023/02/22 07:28:03;;;;;;;5.90;2.60;;;;;;;0.22;54.24;100365.27;106475;1257;73664;-55
2023/02/22 07:30:32;;;;;;;6.90;3.50;;;;;;;0.22;54.17;100364.96;105468;1256;60655;-55
2023/02/22 07:33:07;;;;;;;8.30;2.70;;;;;;;0.16;54.00;100366.36;105586;1257;61246;-55
2023/02/22 07:35:37;;;;;;;8.60;2.90;;;;;;;0.12;54.29;100366.35;105568;1255;73882;-53
2023/02/22 07:38:12;;;;;;;7.20;2.90;;;;;;;0.10;54.71;100363.64;105693;1255;70076;-54
2023/02/22 07:40:41;;;;;;;7.20;2.70;;;;;;;0.09;54.69;100372.84;105633;1256;72999;-53
2023/02/22 07:43:17;;;;;;;6.30;2.90;;;;;;;0.18;54.55;100368.72;105665;1257;60521;-54
2023/02/22 07:45:46;;;;;;;6.80;2.30;;;;;;;0.20;53.42;100375.54;105550;1251;61191;-54
2023/02/22 07:48:15;;;;;;;6.80;2.30;;;;;;;0.19;53.62;100370.41;106114;1256;75321;-54
2023/02/22 07:50:44;;;;;;;8.20;2.80;;;;;;;0.19;53.60;100371.25;105784;1257;70962;-53
2023/02/22 07:53:21;;;;;;;7.40;3.10;;;;;;;0.21;53.72;100374.80;105780;1257;73807;-53
2023/02/22 07:55:50;;;;;;;10.00;2.80;;;;;;;0.28;53.98;100376.45;107955;1256;60454;-53
2023/02/22 07:58:20;;;;;;;7.70;3.20;;;;;;;0.38;54.26;100376.95;106490;1257;61351;-52
2023/02/22 08:00:55;;;;;;;8.10;3.00;;;;;;;0.46;54.41;100377.48;105532;1256;74761;-56
2023/02/22 08:03:24;;;;;;;7.80;3.10;;;;;;;0.51;54.38;100380.05;105779;1260;69768;-54
2023/02/22 08:05:56;;;;;;;8.70;3.20;;;;;;;0.52;54.47;100381.56;105868;1257;73316;-54
2023/02/22 08:08:26;;;;;;;8.60;3.70;;;;;;;0.55;54.50;100380.43;105500;1256;60462;-55
2023/02/22 08:10:55;;;;;;;7.70;2.50;;;;;;;0.58;53.78;100385.50;105797;1251;61415;-54
2023/02/22 08:13:23;;;;;;;7.00;2.70;;;;;;;0.58;53.86;100391.02;105798;1254;74911;-55
2023/02/22 08:15:53;;;;;;;9.10;3.60;;;;;;;0.58;53.69;100388.59;105592;1256;71513;-55
2023/02/22 08:18:22;;;;;;;10.20;3.60;;;;;;;0.55;53.64;100394.73;105668;1256;73725;-54
2023/02/22 08:20:52;;;;;;;8.00;3.10;;;;;;;0.56;53.91;100396.10;105850;1256;60551;-55
2023/02/22 08:23:22;;;;;;;9.80;3.90;;;;;;;0.60;54.11;100398.20;105504;1251;60558;-55
2023/02/22 08:25:50;;;;;;;6.90;2.50;;;;;;;0.66;54.09;100402.80;105728;1253;73630;-54
2023/02/22 08:28:21;;;;;;;6.90;3.20;;;;;;;0.69;52.93;100398.52;105665;1254;71228;-54
2023/02/22 08:30:50;;;;;;;6.90;2.30;;;;;;;0.68;53.11;100399.45;106226;1255;72652;-53
2023/02/22 08:33:20;;;;;;;7.50;2.60;;;;;;;0.64;52.99;100402.52;105645;1251;60452;-56
2023/02/22 08:35:48;;;;;;;8.50;3.30;;;;;;;0.61;53.33;100401.12;105758;1251;61016;-55
2023/02/22 08:38:25;;;;;;;6.70;2.70;;;;;;;0.59;53.52;100406.01;105685;1253;74939;-55
2023/02/22 08:40:54;;;;;;;7.20;3.40;;;;;;;0.59;53.55;100414.12;105690;1254;71317;-55
2023/02/22 08:43:22;;;;;;;7.80;3.10;;;;;;;0.61;53.37;100415.95;105715;1256;72292;-56
2023/02/22 08:45:52;;;;;;;7.90;3.70;;;;;;;0.64;53.27;100413.58;105811;1254;60442;-55
2023/02/22 08:48:24;;;;;;;7.40;3.10;;;;;;;0.70;53.36;100406.77;105740;1251;61221;-55
2023/02/22 08:50:53;;;;;;;10.30;3.60;;;;;;;0.80;52.74;100405.89;105577;1255;73640;-54
2023/02/22 08:53:22;;;;;;;8.20;2.20;;;;;;;0.83;51.35;100409.73;105621;1251;71213;-56
2023/02/22 08:55:50;;;;;;;7.80;2.90;;;;;;;0.85;51.90;100412.23;105655;1256;73339;-56
2023/02/22 08:58:18;;;;;;;6.70;2.00;;;;;;;0.88;51.99;100410.73;105646;1251;61618;-56
2023/02/22 09:00:48;;;;;;;7.30;2.70;;;;;;;0.88;51.65;100412.80;105863;1254;61294;-55
2023/02/22 09:03:18;;;;;;;7.80;2.60;;;;;;;0.86;51.53;100413.25;105790;1256;74766;-56
2023/02/22 09:05:47;;;;;;;9.20;3.90;;;;;;;0.85;51.78;100416.58;105485;1254;71235;-55
2023/02/22 09:08:16;;;;;;;5.40;1.80;;;;;;;0.85;49.62;100416.23;105744;1255;73663;-55
2023/02/22 09:10:44;;;;;;;6.30;1.50;;;;;;;0.87;48.68;100416.33;105821;1254;60754;-56
2023/02/22 09:13:15;;;;;;;4.80;1.80;;;;;;;0.84;46.74;100415.56;105614;1254;60457;-56
2023/02/22 09:15:44;;;;;;;4.40;1.60;;;;;;;0.82;46.69;100417.54;105657;1256;74813;-56
2023/02/22 09:18:13;;;;;;;5.50;1.60;;;;;;;0.85;46.57;100418.98;105537;1254;71238;-56
2023/02/22 09:20:41;;;;;;;7.20;2.10;;;;;;;0.89;47.21;100417.79;105668;1256;72659;-56
2023/02/22 09:23:10;;;;;;;6.50;2.40;;;;;;;0.90;47.84;100421.05;105607;1255;60561;-53
2023/02/22 09:25:42;;;;;;;6.30;2.40;;;;;;;0.88;46.62;100419.37;105584;1257;61361;-55
2023/02/22 09:28:10;;;;;;;5.40;1.80;;;;;;;0.85;46.69;100423.12;105617;1255;74809;-54
2023/02/22 09:30:38;;;;;;;6.60;2.60;;;;;;;0.85;47.17;100423.14;105650;1251;71240;-54
2023/02/22 09:33:09;;;;;;;5.30;2.10;;;;;;;0.83;47.21;100424.07;105694;1256;73629;-57
2023/02/22 09:35:41;;;;;;;4.00;1.40;;;;;;;0.87;47.16;100425.98;105630;1254;60405;-56
2023/02/22 09:38:10;;;;;;;4.90;1.80;;;;;;;0.93;47.14;100430.41;105700;1254;61215;-57
2023/02/22 09:40:44;;;;;;;4.90;1.90;;;;;;;0.99;47.10;100435.39;105676;1252;73251;-56
2023/02/22 09:43:20;;;;;;;;;;;;;;;0.98;45.97;100436.27;105666;1254;70300;-55
2023/02/22 09:46:20;;;;;;;7.10;2.30;;;;;;;0.94;45.94;100435.57;105804;1254;72628;-54
2023/02/22 09:48:52;;;;;;;6.20;2.00;;;;;;;0.85;46.45;100434.00;105752;1254;60489;-55
2023/02/22 09:51:20;;;;;;;7.30;1.90;;;;;;;0.88;46.97;100440.77;105610;1255;60870;-54
2023/02/22 09:53:48;;;;;;;6.00;2.80;;;;;;;1.05;46.86;100445.48;105313;1259;73479;-53
2023/02/22 09:56:17;;;;;;;6.60;2.60;;;;;;;1.20;46.02;100444.04;106558;1251;71665;-53
2023/02/22 09:58:51;;;;;;;5.80;2.40;;;;;;;1.23;46.10;100445.79;105842;1257;72655;-55
2023/02/22 10:01:51;;;;;;;7.90;2.40;;;;;;;1.17;45.44;100446.92;105600;1253;60389;-55
2023/02/22 10:04:24;;;;;;;7.30;2.60;;;;;;;0.96;45.66;100446.20;105615;1251;61319;-55
2023/02/22 10:07:17;;;;;;;6.40;2.00;;;;;;;1.00;45.97;100451.06;105613;1251;74412;-54
2023/02/22 10:09:47;;;;;;;5.10;1.80;;;;;;;0.98;45.77;100449.76;105747;1257;70769;-55
2023/02/22 10:12:32;;;;;;;5.90;2.20;;;;;;;0.97;45.71;100445.98;105804;1251;73757;-55
2023/02/22 10:15:37;;;;;;;7.40;3.00;;;;;;;0.88;46.15;100440.44;105679;1254;60681;-56
2023/02/22 10:18:28;;;;;;;5.60;2.30;;;;;;;0.86;45.57;100450.68;105644;1257;61843;-56
2023/02/22 10:20:58;;;;;;;5.00;1.60;;;;;;;0.82;45.25;100446.21;105650;1254;73175;-56
2023/02/22 10:23:33;;;;;;;3.60;1.30;;;;;;;0.83;45.64;100451.68;105417;1257;71323;-55
2023/02/22 10:26:15;;;;;;;5.50;2.00;;;;;;;0.91;45.30;100452.43;105632;1256;73657;-53
2023/02/22 10:28:59;;;;;;;6.80;2.80;;;;;;;0.93;45.28;100453.74;105516;1256;60563;-54
2023/02/22 10:31:30;;;;;;;7.20;2.30;;;;;;;0.94;45.30;100455.42;105729;1254;61321;-54
2023/02/22 10:34:00;;;;;;;6.90;2.20;;;;;;;0.89;44.90;100447.64;105620;1256;74642;-53
2023/02/22 10:36:28;;;;;;;8.00;3.00;;;;;;;0.91;45.45;100455.54;106196;1254;71569;-53
2023/02/22 10:38:58;;;;;;;7.20;1.90;;;;;;;0.95;45.52;100453.69;106031;1255;73837;-51
2023/02/22 10:41:33;;;;;;;5.40;2.00;;;;;;;0.87;45.05;100452.23;105660;1253;61091;-53
2023/02/22 10:44:01;;;;;;;7.10;2.40;;;;;;;0.82;45.43;100453.30;105445;1258;60657;-54
2023/02/22 10:46:30;;;;;;;5.30;1.80;;;;;;;0.83;45.63;100452.03;105611;1257;74750;-53
2023/02/22 10:49:02;;;;;;;5.10;1.90;;;;;;;0.88;45.60;100449.23;105633;1254;71212;-54
2023/02/22 10:51:30;;;;;;;6.30;2.50;;;;;;;0.89;45.21;100449.73;105598;1258;73693;-53
2023/02/22 10:54:13;;;;;;;3.60;1.40;;;;;;;0.85;45.26;100445.58;105652;1256;60540;-54
2023/02/22 10:56:54;;;;;;;4.40;1.60;;;;;;;0.86;46.20;100444.67;105587;1256;61302;-53
2023/02/22 10:59:27;;;;;;;6.60;2.20;;;;;;;0.87;45.40;100442.88;105628;1254;74770;-54
2023/02/22 11:01:56;;;;;;;5.30;1.70;;;;;;;0.99;45.40;100447.80;105661;1254;71081;-54
2023/02/22 11:04:24;;;;;;;4.20;1.60;;;;;;;1.12;45.14;100450.56;106203;1251;73142;-56
2023/02/22 11:07:19;;;;;;;7.00;2.70;;;;;;;1.21;45.39;100454.70;105492;1254;60640;-54
2023/02/22 11:09:53;;;;;;;5.70;2.30;;;;;;;1.31;45.55;100448.78;105530;1257;61447;-54
2023/02/22 11:12:31;;;;;;;6.00;1.60;;;;;;;1.39;45.16;100447.05;105355;1254;348225;-54
2023/02/22 11:28:13;;;;;;;6.70;2.30;;;;;;;1.64;44.43;100452.60;103229;1286;605122;-54
2023/02/22 11:30:44;;;;;;;4.70;1.60;;;;;;;1.89;43.80;100461.58;104460;1264;99386;-54
2023/02/22 11:33:23;;;;;;;7.30;3.10;;;;;;;1.89;44.04;100467.48;104719;1264;61070;-55
2023/02/22 11:35:55;;;;;;;5.30;1.50;;;;;;;1.85;43.97;100464.52;105321;1267;73193;-56
2023/02/22 11:38:35;;;;;;;6.40;2.20;;;;;;;1.81;44.12;100469.02;104902;1265;70178;-55
2023/02/22 11:41:13;;;;;;;6.50;2.90;;;;;;;1.77;44.10;100470.06;105453;1254;74912;-55
2023/02/22 11:43:43;;;;;;;11.80;4.30;;;;;;;1.73;44.36;100473.49;105629;1253;60632;-55
2023/02/22 11:46:25;;;;;;;5.40;2.30;;;;;;;1.70;45.05;100474.00;105577;1256;61266;-55
2023/02/22 11:49:07;;;;;;;5.50;2.00;;;;;;;1.73;45.48;100472.98;105906;1253;73170;-56
2023/02/22 11:51:51;;;;;;;6.50;2.40;;;;;;;1.79;44.76;100472.20;105685;1254;70370;-55
2023/02/22 11:54:41;;;;;;;7.80;2.60;;;;;;;1.83;44.71;100473.08;105621;1257;73662;-55
2023/02/22 11:57:15;;;;;;;7.10;2.50;;;;;;;1.80;44.29;100474.59;105388;1253;60292;-55
2023/02/22 12:00:06;;;;;;;10.80;4.10;;;;;;;1.74;44.25;100475.55;105448;1254;61053;-55
2023/02/22 12:03:04;;;;;;;7.90;2.80;;;;;;;1.70;44.70;100479.33;105339;1257;74214;-55
2023/02/22 12:06:00;;;;;;;8.90;2.90;;;;;;;1.75;45.14;100478.46;105489;1256;69987;-55
2023/02/22 12:08:39;;;;;;;7.10;2.40;;;;;;;1.83;45.07;100482.27;105477;1254;73686;-54